Time;durP1;ratioP1;P1;durP2;ratioP2;P2;SDS_P1;SDS_P2;PMS_P1;PMS_P2;Temp;Humidity;BMP_temperature;BMP_pressure;BME280_temperature;BME280_humidity;BME280_pressure;Samples;Min_cycle;Max_cycle;Signal;HPM_P1;HPM_P2
2021/06/28 00:00:13;;;;;;;8.40;4.90;;;12.10;99.90;;;10.74;100.00;101414.81;5000579;28;20070;-73
2021/06/28 00:02:39;;;;;;;11.18;8.27;;;12.10;99.90;;;10.73;100.00;101420.97;4982266;28;20086;-73
2021/06/28 00:05:09;;;;;;;21.25;6.50;;;12.10;99.90;;;10.69;100.00;101419.38;4980661;28;20054;-73
2021/06/28 00:07:36;;;;;;;8.63;5.60;;;12.00;99.90;;;10.58;100.00;101416.25;4988559;28;20572;-73
2021/06/28 00:10:07;;;;;;;7.65;5.75;;;12.00;99.90;;;10.57;100.00;101422.44;4978403;28;20468;-73
2021/06/28 00:12:34;;;;;;;5.22;4.35;;;12.00;99.90;;;10.49;100.00;101416.59;4992792;28;20081;-73
2021/06/28 00:15:01;;;;;;;7.13;5.00;;;11.90;99.90;;;10.42;100.00;101416.81;5000610;28;20060;-74
2021/06/28 00:17:27;;;;;;;8.80;5.30;;;11.80;99.90;;;10.40;100.00;101413.34;4999518;28;20067;-73
2021/06/28 00:19:54;;;;;;;8.05;5.35;;;11.90;99.90;;;10.45;100.00;101416.72;4998175;28;20070;-73
2021/06/28 00:22:20;;;;;;;10.73;5.75;;;11.90;99.90;;;10.53;100.00;101410.31;5004656;28;20510;-73
2021/06/28 00:24:46;;;;;;;14.52;9.55;;;12.00;99.90;;;10.55;100.00;101405.84;5002459;28;20067;-73
2021/06/28 00:27:12;;;;;;;19.05;12.07;;;12.00;99.90;;;10.54;100.00;101412.91;4996895;28;20128;-74
2021/06/28 00:29:37;;;;;;;9.07;5.63;;;12.00;99.90;;;10.64;100.00;101410.78;5001593;28;20080;-73
2021/06/28 00:32:04;;;;;;;9.43;6.38;;;12.10;99.90;;;10.68;100.00;101413.25;5000698;28;20072;-74
2021/06/28 00:34:30;;;;;;;10.80;6.50;;;12.10;99.90;;;10.69;100.00;101419.38;5001506;28;20068;-74
2021/06/28 00:36:58;;;;;;;13.68;8.57;;;12.10;99.90;;;10.66;100.00;101415.06;5002639;28;20082;-74
2021/06/28 00:39:24;;;;;;;18.55;10.82;;;12.00;99.90;;;10.61;100.00;101416.16;5014601;28;20077;-73
2021/06/28 00:41:50;;;;;;;20.15;12.85;;;11.90;99.90;;;10.47;100.00;101414.00;4998141;28;20078;-73
2021/06/28 00:44:17;;;;;;;20.33;12.40;;;11.80;99.90;;;10.36;100.00;101406.47;5000948;28;20170;-73
2021/06/28 00:46:44;;;;;;;16.98;10.93;;;11.70;99.90;;;10.34;100.00;101405.66;4997708;28;20065;-74
2021/06/28 00:49:09;;;;;;;18.08;11.98;;;11.70;99.90;;;10.23;100.00;101403.38;4999578;28;20048;-74
2021/06/28 00:51:36;;;;;;;19.63;9.88;;;11.70;99.90;;;10.22;100.00;101406.94;5011777;28;20113;-73
2021/06/28 00:54:02;;;;;;;12.77;7.82;;;11.70;99.90;;;10.29;100.00;101404.97;5009962;28;20061;-73
2021/06/28 00:56:28;;;;;;;13.60;7.97;;;11.80;99.90;;;10.43;100.00;101402.75;4985567;28;20148;-73
2021/06/28 00:58:56;;;;;;;24.45;8.18;;;11.90;99.90;;;10.47;100.00;101403.47;5002210;28;20115;-74
2021/06/28 01:01:22;;;;;;;18.20;9.57;;;11.90;99.90;;;10.44;100.00;101401.81;5018156;28;20634;-74
2021/06/28 01:03:48;;;;;;;16.92;9.90;;;11.90;99.90;;;10.53;100.00;101402.41;5005815;28;20158;-73
2021/06/28 01:06:15;;;;;;;17.63;9.93;;;12.00;99.90;;;10.61;100.00;101397.72;5003560;28;20077;-73
2021/06/28 01:08:42;;;;;;;16.55;9.27;;;12.00;99.90;;;10.68;100.00;101400.06;5003515;28;20132;-74
2021/06/28 01:11:08;;;;;;;15.98;10.02;;;12.10;99.90;;;10.80;100.00;101408.47;5015264;28;20060;-74
2021/06/28 01:13:37;;;;;;;18.55;10.20;;;12.10;99.90;;;10.73;100.00;101407.78;5004560;28;20066;-73
2021/06/28 01:16:04;;;;;;;22.30;12.88;;;12.00;99.90;;;10.68;100.00;101412.38;5005371;28;20159;-73
2021/06/28 01:18:32;;;;;;;26.77;13.70;;;12.00;99.90;;;10.62;100.00;101405.56;5003466;28;20087;-74
2021/06/28 01:21:00;;;;;;;20.95;11.63;;;12.00;99.90;;;10.58;100.00;101406.59;5000614;28;20462;-74
2021/06/28 01:23:32;;;;;;;19.15;11.50;;;11.90;99.90;;;10.48;100.00;101399.94;5005166;28;20058;-73
2021/06/28 01:26:08;;;;;;;20.05;12.40;;;11.90;99.90;;;10.46;100.00;101401.75;5003629;28;20418;-74
2021/06/28 01:28:35;;;;;;;14.55;9.90;;;11.80;99.90;;;10.37;100.00;101400.31;5004572;28;20069;-74
2021/06/28 01:31:05;;;;;;;17.52;10.57;;;11.80;99.90;;;10.37;100.00;101408.22;5000686;28;20066;-73
2021/06/28 01:33:31;;;;;;;22.85;13.82;;;11.80;99.90;;;10.31;100.00;101397.88;5002537;28;20506;-73
2021/06/28 01:35:58;;;;;;;25.92;9.32;;;11.70;99.90;;;10.19;100.00;101401.75;5001944;28;20046;-73
2021/06/28 01:38:24;;;;;;;19.00;11.05;;;11.60;99.90;;;9.97;100.00;101403.41;5001503;28;20146;-73
2021/06/28 01:40:51;;;;;;;27.00;11.32;;;11.50;99.90;;;9.90;100.00;101400.13;5002121;28;20061;-74
2021/06/28 01:43:17;;;;;;;27.55;12.50;;;11.50;99.90;;;9.92;100.00;101400.94;4982655;28;20071;-74
2021/06/28 01:45:48;;;;;;;24.33;13.52;;;11.40;99.90;;;9.93;100.00;101404.41;4983352;28;20426;-73
2021/06/28 01:48:14;;;;;;;37.47;13.25;;;11.50;99.90;;;10.00;100.00;101404.19;4981233;28;20065;-74
2021/06/28 01:50:42;;;;;;;36.00;14.38;;;11.50;99.90;;;10.08;100.00;101396.00;4982253;28;20133;-73
2021/06/28 01:53:09;;;;;;;37.05;13.73;;;11.60;99.90;;;10.15;100.00;101397.53;4983177;28;20164;-74
2021/06/28 01:55:37;;;;;;;41.03;16.90;;;11.60;99.90;;;10.19;100.00;101403.53;4991842;28;20067;-74
2021/06/28 01:58:07;;;;;;;49.03;18.17;;;11.70;99.90;;;10.21;100.00;101401.72;4990922;28;20124;-73
2021/06/28 02:00:53;;;;;;;71.03;20.23;;;11.70;99.90;;;10.29;100.00;101404.97;4981879;28;20078;-74
2021/06/28 02:03:24;;;;;;;74.53;25.40;;;11.80;99.90;;;10.37;100.00;101396.84;4980082;28;20074;-73
2021/06/28 02:05:53;;;;;;;61.20;20.10;;;11.90;99.90;;;10.41;100.00;101401.06;4982171;28;20502;-73
2021/06/28 02:08:23;;;;;;;54.50;21.25;;;11.90;99.90;;;10.40;100.00;101394.94;4983324;28;20076;-74
2021/06/28 02:10:53;;;;;;;57.28;22.20;;;11.80;99.90;;;10.40;100.00;101399.34;4983361;28;20139;-73
2021/06/28 02:13:23;;;;;;;56.13;19.27;;;11.80;99.90;;;10.42;100.00;101401.00;4982985;28;20063;-74
2021/06/28 02:15:49;;;;;;;47.47;19.10;;;11.80;99.90;;;10.45;100.00;101405.28;4980419;28;20059;-74
2021/06/28 02:18:16;;;;;;;36.30;16.90;;;11.80;99.90;;;10.44;100.00;101400.97;4983123;28;20066;-73
2021/06/28 02:20:42;;;;;;;41.92;19.02;;;11.90;99.90;;;10.46;100.00;101404.41;4982030;28;20478;-73
2021/06/28 02:23:20;;;;;;;54.03;16.23;;;11.90;99.90;;;10.49;100.00;101400.78;4980487;28;20070;-73
2021/06/28 02:26:14;;;;;;;47.03;16.15;;;11.90;99.90;;;10.54;100.00;101404.09;5006156;28;20079;-73
2021/06/28 02:28:45;;;;;;;65.95;17.92;;;11.90;99.90;;;10.50;100.00;101392.84;4973964;28;20067;-73
2021/06/28 02:31:15;;;;;;;75.30;20.83;;;11.90;99.90;;;10.43;100.00;101392.22;4973405;28;20059;-73
2021/06/28 02:33:42;;;;;;;54.05;17.08;;;11.90;99.90;;;10.45;100.00;101398.28;4983724;28;20117;-74
2021/06/28 02:36:09;;;;;;;52.90;20.70;;;11.90;99.90;;;10.46;100.00;101389.44;5001764;28;20434;-73
2021/06/28 02:38:36;;;;;;;42.60;16.13;;;11.90;99.90;;;10.53;100.00;101381.34;4990478;28;20514;-73
2021/06/28 02:41:05;;;;;;;25.95;13.73;;;12.00;99.90;;;10.60;100.00;101394.22;5005392;28;20063;-74
2021/06/28 02:43:33;;;;;;;45.58;16.25;;;12.10;99.90;;;10.68;100.00;101397.44;4999616;28;20071;-74
2021/06/28 02:45:59;;;;;;;58.50;16.80;;;12.10;99.90;;;10.65;100.00;101392.28;5003209;28;20069;-74
2021/06/28 02:48:26;;;;;;;46.47;18.52;;;12.20;99.90;;;10.67;100.00;101382.56;5000605;28;20067;-73
2021/06/28 02:50:54;;;;;;;61.35;19.60;;;12.10;99.90;;;10.66;100.00;101387.88;5001081;28;20206;-73
2021/06/28 02:53:21;;;;;;;47.20;19.98;;;12.10;99.90;;;10.63;100.00;101388.00;4998899;28;20164;-74
2021/06/28 02:55:51;;;;;;;52.33;19.27;;;12.10;99.90;;;10.59;100.00;101387.25;5004642;28;20122;-73
2021/06/28 02:58:21;;;;;;;60.05;18.95;;;12.00;99.90;;;10.61;100.00;101381.94;4998857;28;20092;-73
2021/06/28 03:00:48;;;;;;;54.17;19.00;;;12.10;99.90;;;10.64;100.00;101382.66;5000768;28;20507;-73
2021/06/28 03:03:14;;;;;;;67.82;19.35;;;12.10;99.90;;;10.72;100.00;101381.53;5001190;28;20085;-74
2021/06/28 03:05:40;;;;;;;62.38;18.52;;;12.20;99.90;;;10.77;100.00;101377.81;5003004;28;20402;-73
2021/06/28 03:08:07;;;;;;;56.70;17.77;;;12.20;99.90;;;10.80;100.00;101375.06;5000508;28;20132;-73
2021/06/28 03:10:35;;;;;;;68.65;19.25;;;12.30;99.90;;;10.83;100.00;101377.56;5004474;28;20547;-73
2021/06/28 03:13:01;;;;;;;46.58;15.35;;;12.30;99.90;;;10.88;100.00;101380.91;4988027;28;20551;-73
2021/06/28 03:15:27;;;;;;;59.20;15.40;;;12.40;99.90;;;11.02;100.00;101376.91;4992105;28;20054;-73
2021/06/28 03:17:53;;;;;;;72.70;15.65;;;12.40;99.90;;;11.10;100.00;101388.00;4998541;28;20069;-73
2021/06/28 03:20:19;;;;;;;77.88;15.43;;;12.50;99.90;;;11.10;100.00;101388.00;4999897;28;20064;-73
2021/06/28 03:22:47;;;;;;;51.08;14.85;;;12.50;99.90;;;11.05;100.00;101379.41;4999459;28;20134;-74
2021/06/28 03:25:17;;;;;;;52.17;14.60;;;12.50;99.90;;;11.05;100.00;101374.13;4983768;28;20095;-73
2021/06/28 03:27:43;;;;;;;42.40;12.75;;;12.50;99.90;;;11.04;100.00;101370.66;4984765;28;20394;-73
2021/06/28 03:30:14;;;;;;;50.83;12.93;;;12.50;99.90;;;11.01;100.00;101377.81;4999442;28;20156;-74
2021/06/28 03:32:42;;;;;;;43.67;12.88;;;12.40;99.90;;;10.97;100.00;101370.91;4998693;28;20496;-73
2021/06/28 03:35:09;;;;;;;45.20;12.90;;;12.40;99.90;;;10.97;100.00;101376.19;5000802;28;20578;-73
2021/06/28 03:37:35;;;;;;;52.90;12.50;;;12.40;99.90;;;10.94;100.00;101377.19;4980409;28;20095;-73
2021/06/28 03:40:02;;;;;;;48.30;13.52;;;12.40;99.90;;;10.94;100.00;101373.69;4982048;28;20070;-74
2021/06/28 03:42:28;;;;;;;55.20;11.68;;;12.40;99.90;;;10.98;100.00;101377.94;4980775;28;20136;-74
2021/06/28 03:44:54;;;;;;;37.92;11.73;;;12.40;99.90;;;11.04;100.00;101372.44;4978151;28;20064;-73
2021/06/28 03:47:20;;;;;;;34.92;12.30;;;12.50;99.90;;;11.12;100.00;101369.47;4980799;28;20071;-73
2021/06/28 03:49:46;;;;;;;42.20;11.93;;;12.60;99.90;;;11.19;100.00;101368.34;4980862;28;20057;-73
2021/06/28 03:52:12;;;;;;;43.25;12.63;;;12.70;99.90;;;11.23;100.00;101373.44;4979910;28;20118;-73
2021/06/28 03:54:38;;;;;;;41.22;11.75;;;12.70;99.90;;;11.26;100.00;101369.81;4972870;28;20060;-73
2021/06/28 03:57:04;;;;;;;30.05;9.43;;;12.80;99.90;;;11.29;100.00;101370.56;4982537;28;20531;-73
2021/06/28 03:59:30;;;;;;;26.73;8.70;;;12.80;99.90;;;11.36;100.00;101372.94;4981585;28;20082;-73
2021/06/28 04:01:56;;;;;;;24.00;9.40;;;12.90;99.90;;;11.43;100.00;101369.16;5001506;28;20084;-73
2021/06/28 04:04:22;;;;;;;29.25;8.82;;;12.90;99.90;;;11.47;100.00;101376.03;5001195;28;20083;-73
2021/06/28 04:06:48;;;;;;;37.67;10.27;;;13.00;99.90;;;11.48;100.00;101369.81;4999113;28;20063;-73
2021/06/28 04:09:14;;;;;;;43.28;10.70;;;13.00;99.90;;;11.48;100.00;101375.94;4991369;28;20077;-74
2021/06/28 04:11:40;;;;;;;29.50;9.57;;;13.10;99.90;;;11.51;100.00;101377.59;5014630;28;20142;-73
2021/06/28 04:14:06;;;;;;;24.95;9.20;;;13.20;99.90;;;11.66;100.00;101376.13;4999964;28;20418;-73
2021/06/28 04:16:32;;;;;;;29.65;9.48;;;13.70;99.90;;;12.29;100.00;101376.19;4998388;28;20072;-73
2021/06/28 04:18:58;;;;;;;24.13;8.32;;;14.40;99.90;;;12.76;100.00;101389.03;5000221;28;20152;-74
2021/06/28 04:21:24;;;;;;;32.88;9.48;;;14.80;99.90;;;13.07;100.00;101387.66;5006808;28;20152;-74
2021/06/28 04:23:50;;;;;;;24.88;7.95;;;15.20;99.90;;;13.26;100.00;101391.16;5000034;28;20091;-74
2021/06/28 04:26:16;;;;;;;35.72;8.73;;;15.30;99.90;;;13.47;100.00;101389.28;4999281;28;20112;-74
2021/06/28 04:28:42;;;;;;;22.02;7.95;;;15.70;99.90;;;13.94;100.00;101386.09;4997349;28;20068;-73
2021/06/28 04:31:08;;;;;;;24.23;5.55;;;16.50;99.90;;;14.75;96.77;101386.38;4998213;28;20083;-74
2021/06/28 04:33:34;;;;;;;22.95;4.82;;;17.60;99.90;;;15.70;93.09;101385.53;4999882;28;20068;-73
2021/06/28 04:36:00;;;;;;;16.20;5.13;;;18.80;99.90;;;16.80;90.39;101398.50;5001778;28;20020;-74
2021/06/28 04:38:26;;;;;;;18.75;5.07;;;20.40;99.90;;;18.12;84.46;101390.00;4999026;28;20048;-75
2021/06/28 04:40:52;;;;;;;15.13;5.10;;;21.80;99.90;;;19.38;78.86;101393.63;5015449;28;20021;-74
2021/06/28 04:43:18;;;;;;;15.48;5.05;;;22.90;99.90;;;20.62;70.83;101386.94;4994516;28;21109;-74
2021/06/28 04:45:44;;;;;;;13.43;4.90;;;23.20;99.90;;;21.05;68.85;101386.19;5008751;28;20034;-74
2021/06/28 04:48:10;;;;;;;12.07;5.32;;;23.30;99.90;;;20.61;70.76;101387.06;4998944;28;20129;-74
2021/06/28 04:50:36;;;;;;;11.02;5.95;;;22.80;99.90;;;19.85;73.44;101395.47;5001622;28;20382;-74
2021/06/28 04:53:03;;;;;;;13.02;5.68;;;22.70;99.90;;;19.94;74.87;101388.59;4998793;28;20038;-75
2021/06/28 04:55:29;;;;;;;11.38;6.03;;;22.60;99.90;;;20.50;70.64;101398.56;5001515;28;20038;-74
2021/06/28 04:57:55;;;;;;;11.93;5.93;;;22.20;99.90;;;20.46;70.95;101394.44;5001362;28;20393;-74
2021/06/28 05:00:24;;;;;;;10.82;6.00;;;22.30;99.90;;;20.80;69.39;101405.19;5000420;28;20022;-74
2021/06/28 05:02:50;;;;;;;9.35;5.90;;;23.20;99.90;;;21.57;68.44;101399.88;4997591;28;21345;-74
2021/06/28 05:05:18;;;;;;;10.88;6.03;;;24.50;99.90;;;22.47;63.98;101399.47;4980270;28;20041;-74
2021/06/28 05:07:44;;;;;;;11.05;5.40;;;25.70;99.90;;;23.37;62.47;101392.50;4996880;28;20056;-74
2021/06/28 05:10:15;;;;;;;12.77;5.85;;;27.00;99.90;;;24.54;60.22;101390.63;5014391;28;20030;-75
2021/06/28 05:12:41;;;;;;;7.95;5.70;;;27.90;99.90;;;24.80;58.29;101389.13;4991923;28;20192;-74
2021/06/28 05:15:09;;;;;;;11.55;6.05;;;28.50;99.90;;;24.13;57.26;101394.50;4998226;28;20520;-74
2021/06/28 05:17:35;;;;;;;11.98;5.88;;;28.40;99.90;;;25.45;57.06;101403.38;4995948;28;20040;-75
2021/06/28 05:20:04;;;;;;;11.15;5.75;;;29.30;99.30;;;26.20;53.89;101397.69;4990307;28;20038;-74
2021/06/28 05:22:31;;;;;;;6.53;5.53;;;;;;;26.04;54.03;101384.91;5000207;28;20037;-75
2021/06/28 05:24:57;;;;;;;10.85;5.43;;;30.00;97.40;;;26.71;52.64;101387.88;5001584;28;20536;-74
2021/06/28 05:27:23;;;;;;;7.35;5.72;;;29.00;96.50;;;23.41;61.65;101391.22;4997908;28;20117;-74
2021/06/28 05:29:55;;;;;;;10.02;5.63;;;27.80;99.90;;;23.57;62.47;101385.28;4998786;28;20027;-74
2021/06/28 05:32:24;;;;;;;8.65;5.50;;;27.20;99.90;;;23.04;64.52;101377.53;5000961;28;21027;-74
2021/06/28 05:34:51;;;;;;;6.70;5.18;;;27.10;99.90;;;23.40;62.94;101373.38;4996451;28;20041;-73
2021/06/28 05:37:18;;;;;;;7.90;5.47;;;27.10;99.90;;;22.84;65.77;101372.06;4997495;28;20037;-74
2021/06/28 05:39:46;;;;;;;9.07;5.95;;;26.40;99.90;;;23.30;63.26;101368.00;5015262;28;20486;-74
2021/06/28 05:42:14;;;;;;;8.90;5.28;;;26.10;99.90;;;22.75;63.56;101369.38;5019510;28;20041;-73
2021/06/28 05:44:40;;;;;;;7.30;5.57;;;26.80;99.90;;;24.47;57.15;101375.16;5002445;28;20033;-74
2021/06/28 05:47:07;;;;;;;6.50;4.93;;;28.00;99.00;;;24.26;57.87;101378.91;4985771;28;20026;-74
2021/06/28 05:49:36;;;;;;;9.95;4.32;;;27.30;99.50;;;24.19;58.92;101371.53;5002389;28;20108;-74
2021/06/28 05:52:05;;;;;;;11.77;4.22;;;28.50;98.70;;;25.08;54.73;101373.81;5003616;28;20018;-74
2021/06/28 05:54:31;;;;;;;5.63;4.03;;;28.60;96.90;;;26.28;50.00;101375.28;5001967;28;20549;-74
2021/06/28 05:56:58;;;;;;;5.82;4.18;;;30.20;94.40;;;27.69;46.10;101379.25;4984624;28;20079;-74
2021/06/28 05:59:25;;;;;;;5.03;3.65;;;31.20;91.90;;;28.58;42.07;101382.94;5002916;28;20108;-74
2021/06/28 06:01:51;;;;;;;5.18;3.85;;;32.20;90.20;;;29.62;41.13;101380.06;4999194;28;20545;-75
2021/06/28 06:04:17;;;;;;;4.20;3.80;;;33.00;86.40;;;29.39;42.05;101385.47;5003947;28;20033;-75
2021/06/28 06:06:43;;;;;;;5.53;3.60;;;32.10;86.90;;;28.89;41.82;101384.84;5004326;28;20500;-74
2021/06/28 06:09:10;;;;;;;9.88;3.53;;;30.90;89.80;;;28.71;43.22;101374.25;5003223;28;20022;-74
2021/06/28 06:11:37;;;;;;;4.00;3.40;;;31.50;87.30;;;30.00;39.89;101386.41;5000854;28;20045;-74
2021/06/28 06:14:04;;;;;;;3.58;3.20;;;32.20;84.10;;;30.53;38.41;101389.09;5002677;28;20026;-74
2021/06/28 06:16:30;;;;;;;5.35;3.22;;;32.40;82.00;;;31.14;36.02;101382.59;5017315;28;20076;-73
2021/06/28 06:18:56;;;;;;;3.83;2.85;;;32.80;79.40;;;30.94;34.20;101380.50;5003612;28;20025;-73
2021/06/28 06:21:23;;;;;;;3.17;2.83;;;32.50;78.70;;;32.10;33.19;101379.63;5003148;28;20116;-72
2021/06/28 06:23:51;;;;;;;4.75;3.00;;;32.00;77.70;;;30.61;36.03;101385.47;5000069;28;20026;-72
2021/06/28 06:26:18;;;;;;;2.83;2.63;;;32.20;80.80;;;30.65;36.80;101386.78;4979778;28;20473;-72
2021/06/28 06:28:45;;;;;;;4.80;2.25;;;32.60;77.30;;;30.63;35.11;101384.25;4986139;28;20022;-72
2021/06/28 06:31:12;;;;;;;3.55;2.58;;;32.80;75.90;;;30.22;35.77;101392.81;5002215;28;20398;-73
2021/06/28 06:33:38;;;;;;;2.92;2.55;;;32.10;79.50;;;28.62;40.45;101386.16;5003747;28;20037;-72
2021/06/28 06:36:06;;;;;;;3.05;2.47;;;32.40;79.40;;;30.41;37.40;101387.88;5007962;28;20061;-72
2021/06/28 06:38:32;;;;;;;2.95;2.30;;;32.80;76.10;;;30.57;36.51;101385.00;4998562;28;20389;-72
2021/06/28 06:41:01;;;;;;;2.70;2.50;;;32.40;76.60;;;27.46;41.17;101392.56;5000054;28;20022;-72
2021/06/28 06:43:27;;;;;;;2.83;2.63;;;31.50;78.70;;;28.88;39.34;101390.44;4999147;28;20037;-72
2021/06/28 06:45:52;;;;;;;2.60;2.40;;;31.70;77.50;;;30.62;35.75;101384.41;5001632;28;20029;-71
2021/06/28 06:48:18;;;;;;;2.40;2.20;;;32.20;77.50;;;30.41;35.92;101390.59;4997650;28;20080;-72
2021/06/28 06:50:44;;;;;;;2.58;2.10;;;32.60;77.50;;;30.45;35.39;101395.50;4987398;28;20033;-72
2021/06/28 06:53:10;;;;;;;3.38;2.45;;;32.60;75.80;;;31.80;33.95;101390.66;4984074;28;20054;-72
2021/06/28 06:55:36;;;;;;;4.50;2.70;;;33.20;76.00;;;32.47;32.86;101397.50;4976754;28;20439;-72
2021/06/28 06:58:10;;;;;;;5.03;2.63;;;33.20;73.10;;;30.85;34.60;101400.63;4984268;28;20489;-72
2021/06/28 07:00:39;;;;;;;3.05;2.60;;;33.40;75.40;;;32.20;33.67;101401.91;4982286;28;20030;-72
2021/06/28 07:03:07;;;;;;;4.22;3.10;;;33.70;74.90;;;32.21;33.88;101404.44;5004443;28;20017;-72
2021/06/28 07:05:34;;;;;;;5.28;3.80;;;33.60;73.30;;;29.14;38.74;101403.75;5000350;28;20037;-72
2021/06/28 07:08:00;;;;;;;5.75;4.75;;;32.00;78.20;;;29.70;38.22;101409.88;5002089;28;20030;-72
2021/06/28 07:10:26;;;;;;;4.00;3.53;;;31.50;78.00;;;30.13;37.58;101409.34;5004667;28;20474;-72
2021/06/28 07:12:53;;;;;;;5.28;3.72;;;32.30;77.20;;;31.64;35.06;101398.06;5001291;28;20057;-72
2021/06/28 07:15:21;;;;;;;4.60;3.70;;;32.50;77.10;;;31.76;34.32;101400.25;5001614;28;20026;-72
2021/06/28 07:17:48;;;;;;;5.18;3.88;;;33.00;77.90;;;31.99;35.58;101398.19;4987614;28;20030;-72
2021/06/28 07:20:21;;;;;;;4.38;3.67;;;33.50;76.30;;;33.03;33.45;101397.38;4992446;28;20025;-72
2021/06/28 07:22:48;;;;;;;4.10;3.70;;;33.90;73.90;;;33.77;30.93;101409.38;5000423;28;20044;-72
2021/06/28 07:25:16;;;;;;;4.72;3.72;;;33.70;71.90;;;33.63;30.03;101408.53;4990779;28;20038;-72
2021/06/28 07:27:44;;;;;;;4.20;3.80;;;33.70;74.40;;;32.76;32.49;101401.03;5001998;28;20029;-72
2021/06/28 07:30:13;;;;;;;4.38;3.97;;;33.90;72.90;;;30.77;34.32;101406.16;4999994;28;20029;-72
2021/06/28 07:32:40;;;;;;;4.43;3.60;;;32.30;77.70;;;28.77;40.01;101407.91;5015366;28;20524;-71
2021/06/28 07:35:10;;;;;;;4.68;3.53;;;31.00;78.90;;;28.78;40.94;101417.75;4999658;28;20520;-71
2021/06/28 07:37:36;;;;;;;4.40;3.78;;;30.30;79.50;;;29.38;37.48;101408.19;4997189;28;20026;-72
2021/06/28 07:40:05;;;;;;;6.78;3.97;;;29.60;81.80;;;29.63;37.86;101401.59;4983407;28;20036;-72
2021/06/28 07:42:30;;;;;;;5.22;4.00;;;28.80;82.20;;;28.10;40.34;101403.66;4998257;28;20551;-72
2021/06/28 07:44:56;;;;;;;4.28;3.72;;;28.60;85.40;;;28.61;40.40;101403.41;4984565;28;20040;-71
2021/06/28 07:47:22;;;;;;;5.60;4.70;;;29.40;85.40;;;28.88;39.90;101399.44;5000508;28;20021;-71
2021/06/28 07:49:48;;;;;;;4.53;3.55;;;30.10;82.10;;;30.45;36.68;101398.22;5001148;28;20026;-71
2021/06/28 07:52:14;;;;;;;3.65;3.33;;;29.10;81.70;;;29.59;37.81;101402.97;4999367;28;20042;-71
2021/06/28 07:54:43;;;;;;;6.68;4.25;;;28.00;85.40;;;27.07;44.40;101400.38;5015833;28;20505;-71
2021/06/28 07:57:09;;;;;;;5.90;4.00;;;28.20;86.00;;;27.53;43.00;101403.56;4998501;28;20164;-72
2021/06/28 07:59:47;;;;;;;4.53;3.83;;;28.00;86.50;;;27.66;42.91;101394.97;5001197;28;20500;-71
2021/06/28 08:02:17;;;;;;;3.83;3.05;;;29.20;87.30;;;29.49;40.84;101402.34;4996806;28;20642;-72
2021/06/28 08:04:43;;;;;;;5.70;3.40;;;29.60;82.20;;;28.91;40.19;101400.94;4992042;28;20062;-71
2021/06/28 08:07:09;;;;;;;3.97;3.30;;;29.00;85.20;;;28.11;42.06;101401.78;5000226;28;20057;-71
2021/06/28 08:09:35;;;;;;;9.52;3.85;;;29.40;84.90;;;29.36;38.97;101396.69;4999713;28;20038;-72
2021/06/28 08:12:01;;;;;;;4.03;3.05;;;30.40;84.30;;;30.76;37.77;101397.19;5016079;28;20064;-72
2021/06/28 08:14:27;;;;;;;3.88;3.17;;;31.60;81.70;;;31.34;35.80;101391.84;5000928;28;20037;-72
2021/06/28 08:16:53;;;;;;;7.40;3.33;;;31.50;80.60;;;31.29;35.51;101391.56;4991841;28;20018;-72
2021/06/28 08:19:19;;;;;;;4.60;2.97;;;32.00;79.20;;;31.33;36.98;101394.75;5000782;28;20049;-71
2021/06/28 08:21:47;;;;;;;3.40;2.85;;;31.30;80.00;;;29.56;38.78;101392.47;5002237;28;20030;-71
2021/06/28 08:24:14;;;;;;;4.50;2.90;;;31.10;80.50;;;29.87;40.11;101394.31;4998269;28;20033;-71
2021/06/28 08:26:40;;;;;;;4.82;3.05;;;31.50;80.70;;;28.62;40.69;101389.69;5002361;28;20096;-71
2021/06/28 08:29:07;;;;;;;3.70;2.75;;;30.10;84.20;;;28.29;43.20;101391.59;4981611;28;20041;-72
2021/06/28 08:31:38;;;;;;;4.05;2.42;;;30.00;84.80;;;28.55;42.72;101379.72;4999671;28;20033;-71
2021/06/28 08:34:04;;;;;;;2.90;2.58;;;30.60;83.50;;;29.99;40.35;101386.56;5015364;28;20103;-71
2021/06/28 08:36:30;;;;;;;4.65;3.15;;;30.80;79.90;;;29.63;37.65;101387.16;4982223;28;20112;-71
2021/06/28 08:38:57;;;;;;;11.48;2.95;;;30.80;83.20;;;29.53;40.54;101382.00;4998702;28;20032;-71
2021/06/28 08:41:25;;;;;;;4.30;2.90;;;30.90;82.00;;;29.95;39.44;101385.25;4990310;28;20029;-72
2021/06/28 08:43:51;;;;;;;3.38;2.80;;;;;;;30.08;39.17;101388.19;4975984;28;20022;-71
2021/06/28 08:46:18;;;;;;;7.30;2.88;;;30.90;84.50;;;29.87;40.98;101393.44;4982694;28;20030;-71
2021/06/28 08:48:45;;;;;;;4.88;2.80;;;30.80;80.80;;;29.13;40.98;101391.22;4978821;28;20061;-74
2021/06/28 08:51:12;;;;;;;4.40;2.80;;;30.50;81.30;;;29.66;38.87;101397.66;4994719;28;20030;-73
2021/06/28 08:53:38;;;;;;;5.68;2.90;;;30.80;80.20;;;30.13;38.25;101388.50;4981429;28;20027;-74
2021/06/28 08:56:09;;;;;;;7.47;3.00;;;31.00;81.10;;;30.24;37.29;101392.63;4980074;28;20065;-74
2021/06/28 08:58:39;;;;;;;3.78;2.92;;;30.90;82.00;;;29.49;40.08;101393.38;4980165;28;20022;-73
2021/06/28 09:01:24;;;;;;;5.13;3.20;;;30.60;82.10;;;29.61;38.91;101395.50;4963882;28;20033;-73
2021/06/28 09:04:04;;;;;;;3.63;3.00;;;30.40;82.50;;;29.68;39.58;101392.91;4932860;28;20030;-73
2021/06/28 09:06:55;;;;;;;3.50;3.00;;;30.70;84.00;;;30.36;39.41;101382.16;4943734;28;20038;-73
2021/06/28 09:09:35;;;;;;;6.63;2.78;;;30.90;82.70;;;30.08;39.02;101390.06;4953423;28;20532;-73
2021/06/28 09:12:32;;;;;;;9.18;3.40;;;29.70;83.70;;;29.04;40.17;101382.25;4973928;28;20100;-73
2021/06/28 09:15:43;;;;;;;4.15;3.38;;;29.80;84.80;;;29.66;40.00;101386.81;4965461;28;20040;-73
2021/06/28 09:19:17;;;;;;;6.00;3.10;;;29.90;83.10;;;28.14;44.87;101379.78;5003221;28;20029;-73
2021/06/28 09:22:45;;;;;;;4.45;2.95;;;29.50;86.60;;;29.01;42.73;101380.75;4967990;28;20084;-73
2021/06/28 09:25:59;;;;;;;;;;;29.50;89.00;;;29.30;41.59;101381.13;4963908;28;20080;-73
2021/06/28 09:29:21;;;;;;;3.90;2.90;;;29.60;85.80;;;29.05;41.28;101378.53;4960836;28;19921;-73
2021/06/28 09:32:42;;;;;;;4.90;3.00;;;29.40;87.20;;;29.53;40.50;101383.88;4961827;28;21513;-73
2021/06/28 09:36:04;;;;;;;3.50;2.95;;;30.00;85.20;;;29.12;39.85;101376.81;4961931;28;20509;-73
2021/06/28 09:38:54;;;;;;;3.15;2.80;;;29.40;83.30;;;28.51;41.73;101376.53;4964715;28;20037;-73
2021/06/28 09:42:23;;;;;;;3.35;2.58;;;29.60;83.70;;;28.53;41.40;101379.91;4950331;28;20129;-73
2021/06/28 09:45:32;;;;;;;3.80;2.85;;;29.30;89.00;;;28.51;42.29;101383.78;4954925;28;20033;-73
2021/06/28 09:49:06;;;;;;;3.80;2.80;;;29.50;86.20;;;28.94;41.21;101385.19;4980345;28;20068;-73
2021/06/28 09:52:40;;;;;;;3.80;2.88;;;29.40;85.20;;;28.95;40.14;101383.31;4959086;28;20037;-73
2021/06/28 09:56:02;;;;;;;4.10;3.00;;;29.50;86.20;;;27.43;43.13;101376.69;4975810;28;20072;-73
2021/06/28 09:59:31;;;;;;;6.20;3.05;;;29.30;87.00;;;29.09;41.92;101379.88;4953792;28;20048;-73
2021/06/28 10:03:27;;;;;;;5.63;2.65;;;29.60;85.00;;;29.44;41.33;101375.78;4971417;28;20429;-73
2021/06/28 10:07:02;;;;;;;3.97;2.92;;;29.60;86.10;;;29.33;40.89;101388.88;4972851;28;20048;-73
2021/06/28 10:18:07;;;;;;;3.55;3.00;;;29.90;84.60;;;29.43;41.58;101378.66;4973728;28;20047;-73
2021/06/28 10:21:55;;;;;;;4.57;3.40;;;29.40;86.60;;;28.22;42.27;101383.31;4973427;28;20045;-73
2021/06/28 10:25:29;;;;;;;4.05;3.00;;;29.50;87.50;;;28.69;42.50;101373.59;4973190;28;20271;-73
2021/06/28 10:28:33;;;;;;;3.75;2.70;;;29.70;85.60;;;29.71;39.19;101373.56;4970707;28;20518;-73
2021/06/28 10:31:34;;;;;;;4.38;2.95;;;29.90;81.20;;;29.65;38.10;101377.84;4964479;28;20036;-73
2021/06/28 10:35:04;;;;;;;3.60;2.92;;;30.20;84.80;;;30.44;38.61;101361.19;4950535;28;20038;-73